createdAt,value
2022-12-23T00:01:41.901Z,15.98
2022-12-23T00:04:10.708Z,13.95
2022-12-23T00:06:38.992Z,13.80
2022-12-23T00:09:07.665Z,14.48
2022-12-23T00:11:36.032Z,15.85
2022-12-23T00:14:23.303Z,15.07
2022-12-23T00:16:51.822Z,14.40
2022-12-23T00:19:23.841Z,14.98
2022-12-23T00:21:52.020Z,15.10
2022-12-23T00:24:20.554Z,15.18
2022-12-23T00:26:48.802Z,16.13
2022-12-23T00:29:18.136Z,16.23
2022-12-23T00:31:46.397Z,15.48
2022-12-23T00:34:15.166Z,16.52
2022-12-23T00:36:43.446Z,15.73
2022-12-23T00:39:32.781Z,15.27
2022-12-23T00:42:20.620Z,15.68
2022-12-23T00:44:49.146Z,15.43
2022-12-23T00:47:35.816Z,15.68
2022-12-23T00:50:04.724Z,15.10
2022-12-23T00:52:32.996Z,17.73
2022-12-23T00:55:01.548Z,16.75
2022-12-23T00:57:29.984Z,15.75
2022-12-23T00:59:58.573Z,16.20
2022-12-23T01:02:45.359Z,15.77
2022-12-23T01:05:37.049Z,16.60
2022-12-23T01:08:08.427Z,16.77
2022-12-23T01:10:40.249Z,16.80
2022-12-23T01:13:08.554Z,16.90
2022-12-23T01:15:37.096Z,17.65
2022-12-23T01:18:05.437Z,16.90
2022-12-23T01:20:34.028Z,16.15
2022-12-23T01:23:02.342Z,17.15
2022-12-23T01:25:32.160Z,16.60
2022-12-23T01:28:00.531Z,16.10
2022-12-23T01:33:44.220Z,16.30
2022-12-23T01:36:13.393Z,14.80
2022-12-23T01:38:41.626Z,13.85
2022-12-23T01:41:54.489Z,13.68
2022-12-23T01:44:53.999Z,14.35
2022-12-23T01:47:26.621Z,14.23
2022-12-23T01:50:07.216Z,13.63
2022-12-23T01:53:07.854Z,14.15
2022-12-23T01:55:43.273Z,14.32
2022-12-23T01:58:17.984Z,14.15
2022-12-23T02:01:04.757Z,14.73
2022-12-23T02:03:45.464Z,15.10
2022-12-23T02:06:39.015Z,15.52
2022-12-23T02:09:19.507Z,13.15
2022-12-23T02:12:21.794Z,14.25
2022-12-23T02:15:27.271Z,13.38
2022-12-23T02:18:27.293Z,13.73
2022-12-23T02:21:14.544Z,13.25
2022-12-23T02:24:05.427Z,13.27
2022-12-23T02:26:47.861Z,13.35
2022-12-23T02:32:20.267Z,11.38
2022-12-23T02:35:13.702Z,12.00
2022-12-23T02:38:09.623Z,12.77
2022-12-23T02:40:59.015Z,11.68
2022-12-23T02:43:43.953Z,12.57
2022-12-23T02:46:43.920Z,12.25
2022-12-23T02:49:18.957Z,13.13
2022-12-23T02:51:53.124Z,13.18
2022-12-23T02:54:36.271Z,14.30
2022-12-23T02:57:07.595Z,14.25
2022-12-23T02:59:45.908Z,15.38
2022-12-23T03:02:14.639Z,15.32
2022-12-23T03:04:44.003Z,14.25
2022-12-23T03:07:20.772Z,14.98
2022-12-23T03:10:01.268Z,15.27
2022-12-23T03:16:04.042Z,14.90
2022-12-23T03:22:50.237Z,14.70
2022-12-23T03:25:32.235Z,14.98
2022-12-23T03:28:19.057Z,15.63
2022-12-23T03:30:54.903Z,15.48
2022-12-23T03:33:29.943Z,15.15
2022-12-23T03:36:11.077Z,14.85
2022-12-23T03:38:41.895Z,16.27
2022-12-23T03:41:18.613Z,15.57
2022-12-23T03:43:58.344Z,16.67
2022-12-23T03:46:46.421Z,13.75
2022-12-23T03:49:20.739Z,16.98
2022-12-23T03:52:01.695Z,16.25
2022-12-23T03:54:59.414Z,15.82
2022-12-23T03:58:02.549Z,15.60
2022-12-23T04:00:36.232Z,14.70
2022-12-23T04:03:48.619Z,15.40
2022-12-23T04:06:19.999Z,15.10
2022-12-23T04:08:50.030Z,16.88
2022-12-23T04:11:21.554Z,15.55
2022-12-23T04:13:49.870Z,14.65
2022-12-23T04:16:18.794Z,15.48
2022-12-23T04:18:47.191Z,14.98
2022-12-23T04:21:15.758Z,14.75
2022-12-23T04:23:43.995Z,14.60
2022-12-23T04:26:15.299Z,14.52
2022-12-23T04:28:43.509Z,14.48
2022-12-23T04:31:12.187Z,13.80
2022-12-23T04:33:40.569Z,15.05
2022-12-23T04:36:09.296Z,14.52
2022-12-23T04:38:37.795Z,14.15
2022-12-23T04:41:06.408Z,15.00
2022-12-23T04:43:34.775Z,15.00
2022-12-23T04:46:06.412Z,15.35
2022-12-23T04:48:36.216Z,14.90
2022-12-23T04:51:08.282Z,15.73
2022-12-23T04:53:37.326Z,14.85
2022-12-23T04:56:06.271Z,15.60
2022-12-23T04:58:34.709Z,15.32
2022-12-23T05:01:06.597Z,15.82
2022-12-23T05:03:35.480Z,15.35
2022-12-23T05:06:07.367Z,15.82
2022-12-23T05:08:38.814Z,15.88
2022-12-23T05:11:07.651Z,15.27
2022-12-23T05:14:01.568Z,15.15
2022-12-23T05:16:34.132Z,14.57
2022-12-23T05:19:02.636Z,16.15
2022-12-23T05:21:31.415Z,16.75
2022-12-23T05:23:59.662Z,16.63
2022-12-23T05:26:28.317Z,16.65
2022-12-23T05:28:56.619Z,16.75
2022-12-23T05:31:25.344Z,16.60
2022-12-23T05:34:00.839Z,17.40
2022-12-23T05:36:36.103Z,15.93
2022-12-23T05:39:04.533Z,17.25
2022-12-23T05:41:33.158Z,17.92
2022-12-23T05:44:11.004Z,18.63
2022-12-23T05:46:41.176Z,17.65
2022-12-23T05:49:09.814Z,17.95
2022-12-23T05:51:39.723Z,16.95
2022-12-23T05:54:10.440Z,17.08
2022-12-23T05:56:41.615Z,18.13
2022-12-23T05:59:09.995Z,18.08
2022-12-23T06:01:39.597Z,17.85
2022-12-23T06:04:10.390Z,19.35
2022-12-23T06:09:09.945Z,18.05
2022-12-23T06:11:41.652Z,18.70
2022-12-23T06:14:10.901Z,18.85
2022-12-23T06:16:39.488Z,20.40
2022-12-23T06:19:09.553Z,20.13
2022-12-23T06:21:40.534Z,19.33
2022-12-23T06:24:08.891Z,20.17
2022-12-23T06:26:43.358Z,19.85
2022-12-23T06:29:16.287Z,18.40
2022-12-23T06:31:44.927Z,19.60
2022-12-23T06:34:13.947Z,20.40
2022-12-23T06:36:42.550Z,20.20
2022-12-23T06:39:11.226Z,20.27
2022-12-23T06:41:43.931Z,20.52
2022-12-23T06:44:14.604Z,19.35
2022-12-23T06:46:43.207Z,19.88
2022-12-23T06:49:17.296Z,21.70
2022-12-23T06:51:45.938Z,20.42
2022-12-23T06:54:14.782Z,21.50
2022-12-23T06:56:43.390Z,21.35
2022-12-23T07:08:30.935Z,20.48
2022-12-23T07:11:07.866Z,21.60
2022-12-23T07:13:36.536Z,21.15
2022-12-23T07:16:10.198Z,22.25
2022-12-23T07:18:41.358Z,21.00
2022-12-23T07:21:19.811Z,26.63
2022-12-23T07:42:42.533Z,23.55
2022-12-23T07:44:56.936Z,24.02
2022-12-23T07:47:31.064Z,22.92
2022-12-23T07:49:59.714Z,22.15
2022-12-23T07:52:31.263Z,22.50
2022-12-23T07:55:00.904Z,23.15
2022-12-23T07:57:38.380Z,25.47
2022-12-23T08:00:14.301Z,23.90
2022-12-23T08:02:43.285Z,25.08
2022-12-23T08:05:13.324Z,23.58
2022-12-23T08:07:43.559Z,22.30
2022-12-23T08:10:12.504Z,23.52
2022-12-23T08:12:40.879Z,23.27
2022-12-23T08:15:10.013Z,23.02
2022-12-23T08:17:40.184Z,24.77
2022-12-23T08:20:09.335Z,27.00
2022-12-23T08:22:40.306Z,27.23
2022-12-23T08:25:10.332Z,32.05
2022-12-23T08:27:44.391Z,29.55
2022-12-23T08:30:15.247Z,29.80
2022-12-23T08:32:51.217Z,29.10
2022-12-23T08:35:20.036Z,27.85
2022-12-23T08:37:48.344Z,32.25
2022-12-23T08:40:21.128Z,30.10
2022-12-23T08:42:49.627Z,29.83
2022-12-23T08:45:19.818Z,26.70
2022-12-23T08:47:48.128Z,25.88
2022-12-23T08:50:16.993Z,23.55
2022-12-23T08:53:20.243Z,20.75
2022-12-23T08:55:56.324Z,20.88
2022-12-23T08:58:27.237Z,20.30
2022-12-23T09:00:58.649Z,20.20
2022-12-23T09:03:27.066Z,19.90
2022-12-23T09:05:59.852Z,19.25
2022-12-23T09:11:09.620Z,19.77
2022-12-23T09:16:37.430Z,19.17
2022-12-23T09:19:10.873Z,21.52
2022-12-23T09:21:39.496Z,23.42
2022-12-23T09:24:08.011Z,25.88
2022-12-23T09:26:38.331Z,24.73
2022-12-23T09:29:09.094Z,23.75
2022-12-23T09:31:40.622Z,23.23
2022-12-23T09:34:14.315Z,22.52
2022-12-23T09:37:28.043Z,23.73
2022-12-23T09:40:18.154Z,22.88
2022-12-23T09:42:58.492Z,22.98
2022-12-23T09:46:07.329Z,24.08
2022-12-23T09:48:49.793Z,21.88
2022-12-23T09:51:24.288Z,23.77
2022-12-23T09:54:22.023Z,23.95
2022-12-23T09:57:03.079Z,26.42
2022-12-23T09:59:54.386Z,30.98
2022-12-23T10:02:29.412Z,37.85
2022-12-23T10:05:20.282Z,41.72
2022-12-23T10:08:38.263Z,55.42
2022-12-23T10:11:39.504Z,58.17
2022-12-23T10:14:33.497Z,80.15
2022-12-23T10:17:37.441Z,73.32
2022-12-23T10:20:14.718Z,70.63
2022-12-23T10:27:46.954Z,23.52
2022-12-23T10:33:25.444Z,30.35
2022-12-23T10:40:22.004Z,21.27
2022-12-23T10:43:24.454Z,21.25
2022-12-23T10:46:52.226Z,20.52
2022-12-23T10:55:08.193Z,17.77
2022-12-23T10:57:57.734Z,19.05
2022-12-23T11:00:30.345Z,18.08
2022-12-23T11:04:10.536Z,16.80
2022-12-23T11:06:43.820Z,16.60
2022-12-23T11:09:22.267Z,17.10
2022-12-23T11:12:08.855Z,17.42
2022-12-23T11:15:07.649Z,16.20
2022-12-23T11:17:42.864Z,15.82
2022-12-23T11:20:23.503Z,18.25
2022-12-23T11:23:25.464Z,16.92
2022-12-23T11:26:18.522Z,17.02
2022-12-23T11:29:02.000Z,16.08
2022-12-23T11:31:51.882Z,17.00
2022-12-23T11:34:26.452Z,21.23
2022-12-23T11:37:36.789Z,16.90
2022-12-23T11:40:22.392Z,16.85
2022-12-23T11:43:08.962Z,16.98
2022-12-23T11:45:46.377Z,16.40
2022-12-23T11:48:30.362Z,15.98
2022-12-23T11:51:01.034Z,15.57
2022-12-23T11:53:32.977Z,15.40
2022-12-23T11:56:19.415Z,15.93
2022-12-23T11:58:51.188Z,14.15
2022-12-23T12:01:24.913Z,15.50
2022-12-23T12:04:03.491Z,16.35
2022-12-23T12:06:33.927Z,44.90
2022-12-23T12:09:05.640Z,35.72
2022-12-23T12:11:44.489Z,26.17
2022-12-23T12:14:43.245Z,24.17
2022-12-23T12:17:27.627Z,50.05
2022-12-23T12:20:02.593Z,43.97
2022-12-23T12:22:46.616Z,18.17
2022-12-23T12:25:37.984Z,16.20
2022-12-23T12:28:15.236Z,17.25
2022-12-23T12:31:32.298Z,16.17
2022-12-23T12:34:28.715Z,14.60
2022-12-23T12:37:11.016Z,16.15
2022-12-23T12:39:49.798Z,15.48
2022-12-23T12:42:35.355Z,15.25
2022-12-23T12:45:16.678Z,15.18
2022-12-23T12:48:16.473Z,15.60
2022-12-23T12:51:10.377Z,14.55
2022-12-23T12:53:53.636Z,14.38
2022-12-23T12:56:37.541Z,15.23
2022-12-23T12:59:06.325Z,14.88
2022-12-23T13:01:57.822Z,15.98
2022-12-23T13:04:38.544Z,17.58
2022-12-23T13:07:43.825Z,17.48
2022-12-23T13:10:42.370Z,17.50
2022-12-23T13:13:29.017Z,18.48
2022-12-23T13:16:29.000Z,17.45
2022-12-23T13:19:32.878Z,18.55
2022-12-23T13:22:11.506Z,18.52
2022-12-23T13:25:15.980Z,21.95
2022-12-23T13:27:56.430Z,19.67
2022-12-23T13:30:32.642Z,19.60
2022-12-23T13:33:16.288Z,19.33
2022-12-23T13:36:04.942Z,18.30
2022-12-23T13:39:19.546Z,17.83
2022-12-23T13:41:52.336Z,17.27
2022-12-23T13:44:25.332Z,17.95
2022-12-23T13:47:12.237Z,16.48
2022-12-23T13:49:43.628Z,16.33
2022-12-23T13:52:16.642Z,15.60
2022-12-23T13:54:57.434Z,14.85
2022-12-23T13:57:50.825Z,16.23
2022-12-23T14:00:20.599Z,18.90
2022-12-23T14:03:22.454Z,17.52
2022-12-23T14:06:30.646Z,15.38
2022-12-23T14:09:03.986Z,18.45
2022-12-23T14:11:35.250Z,18.48
2022-12-23T14:14:06.531Z,19.23
2022-12-23T14:17:45.350Z,19.95
2022-12-23T14:21:44.615Z,18.73
2022-12-23T14:25:19.144Z,15.18
2022-12-23T14:28:42.713Z,17.23
2022-12-23T14:31:39.125Z,18.20
2022-12-23T14:34:17.832Z,21.45
2022-12-23T14:37:31.572Z,30.15
2022-12-23T14:40:39.871Z,29.13
2022-12-23T14:43:23.217Z,23.58
2022-12-23T14:45:57.360Z,23.35
2022-12-23T14:48:37.908Z,19.33
2022-12-23T14:51:15.654Z,20.73
2022-12-23T14:53:54.765Z,21.15
2022-12-23T14:56:26.333Z,19.20
2022-12-23T14:59:12.768Z,19.60
2022-12-23T15:02:15.457Z,17.85
2022-12-23T15:07:30.652Z,17.63
2022-12-23T15:10:05.113Z,19.80
2022-12-23T15:12:42.593Z,27.10
2022-12-23T15:15:45.229Z,29.27
2022-12-23T15:18:13.888Z,40.58
2022-12-23T15:20:47.136Z,36.00
2022-12-23T15:26:51.853Z,31.10
2022-12-23T15:29:32.887Z,38.97
2022-12-23T15:34:35.164Z,28.30
2022-12-23T15:37:06.872Z,26.35
2022-12-23T15:42:38.623Z,22.25
2022-12-23T15:45:37.828Z,24.23
2022-12-23T15:48:22.006Z,28.30
2022-12-23T15:50:59.005Z,25.33
2022-12-23T15:53:38.622Z,24.45
2022-12-23T15:56:18.769Z,20.42
2022-12-23T15:58:48.479Z,26.13
2022-12-23T16:01:23.361Z,23.83
2022-12-23T16:03:58.097Z,22.98
2022-12-23T16:06:29.905Z,24.00
2022-12-23T16:12:38.999Z,23.20
2022-12-23T16:15:23.371Z,23.13
2022-12-23T16:17:52.007Z,22.13
2022-12-23T16:20:40.991Z,24.58
2022-12-23T16:23:12.144Z,22.80
2022-12-23T16:25:55.616Z,23.42
2022-12-23T16:28:48.299Z,20.15
2022-12-23T16:31:19.394Z,21.33
2022-12-23T16:33:59.156Z,24.23
2022-12-23T16:36:27.518Z,25.67
2022-12-23T16:39:10.092Z,26.35
2022-12-23T16:41:41.919Z,30.45
2022-12-23T16:44:10.821Z,31.92
2022-12-23T16:46:49.997Z,27.95
2022-12-23T16:52:51.388Z,27.42
2022-12-23T16:55:23.333Z,26.33
2022-12-23T16:57:51.703Z,27.20
2022-12-23T17:00:21.416Z,26.10
2022-12-23T17:03:44.475Z,27.02
2022-12-23T17:06:17.780Z,26.65
2022-12-23T17:08:46.481Z,25.42
2022-12-23T17:11:17.503Z,25.38
2022-12-23T17:13:45.935Z,25.00
2022-12-23T17:16:19.390Z,31.05
2022-12-23T17:18:53.220Z,26.40
2022-12-23T17:21:26.578Z,26.63
2022-12-23T17:24:26.732Z,25.27
2022-12-23T17:26:59.255Z,25.77
2022-12-23T17:29:28.445Z,26.98
2022-12-23T17:31:57.279Z,25.60
2022-12-23T17:34:25.676Z,29.08
2022-12-23T17:36:54.698Z,26.20
2022-12-23T17:39:23.198Z,27.63
2022-12-23T17:41:51.897Z,24.33
2022-12-23T17:44:20.441Z,25.02
2022-12-23T17:46:48.983Z,24.88
2022-12-23T17:49:17.306Z,24.20
2022-12-23T17:51:48.857Z,23.52
2022-12-23T17:54:23.783Z,30.35
2022-12-23T17:57:01.673Z,30.85
2022-12-23T17:59:30.003Z,36.33
2022-12-23T18:01:58.635Z,35.95
2022-12-23T18:04:26.928Z,29.98
2022-12-23T18:06:55.492Z,26.00
2022-12-23T18:09:23.739Z,27.40
2022-12-23T18:11:52.509Z,28.33
2022-12-23T18:14:35.680Z,28.30
2022-12-23T18:17:04.279Z,34.08
2022-12-23T18:19:32.849Z,40.38
2022-12-23T18:22:02.420Z,52.83
2022-12-23T18:24:30.688Z,45.92
2022-12-23T18:27:01.198Z,49.90
2022-12-23T18:29:30.519Z,42.90
2022-12-23T18:31:59.065Z,38.00
2022-12-23T18:34:33.827Z,36.40
2022-12-23T18:37:02.439Z,32.05
2022-12-23T18:39:30.741Z,32.30
2022-12-23T18:41:59.806Z,29.83
2022-12-23T18:44:29.013Z,28.83
2022-12-23T18:46:57.887Z,26.35
2022-12-23T18:49:34.575Z,27.08
2022-12-23T18:52:11.580Z,30.40
2022-12-23T18:54:46.009Z,24.88
2022-12-23T18:57:14.793Z,24.55
2022-12-23T18:59:43.430Z,26.42
2022-12-23T19:02:17.340Z,31.17
2022-12-23T19:04:45.808Z,37.10
2022-12-23T19:07:16.714Z,33.55
2022-12-23T19:09:53.966Z,24.50
2022-12-23T19:12:23.909Z,26.45
2022-12-23T19:19:06.177Z,27.85
2022-12-23T19:21:35.785Z,27.67
2022-12-23T19:24:05.180Z,24.92
2022-12-23T19:32:32.933Z,28.95
2022-12-23T19:39:52.416Z,24.70
2022-12-23T19:52:36.073Z,28.65
2022-12-23T19:55:58.859Z,29.23
2022-12-23T20:01:11.883Z,31.42
2022-12-23T20:03:41.784Z,29.65
2022-12-23T20:06:38.547Z,29.60
2022-12-23T20:10:16.684Z,32.22
2022-12-23T20:16:58.941Z,28.17
2022-12-23T20:19:28.205Z,25.75
2022-12-23T20:31:50.661Z,30.48
2022-12-23T20:34:25.697Z,33.63
2022-12-23T20:36:55.841Z,40.85
2022-12-23T20:40:17.792Z,31.35
2022-12-23T20:42:46.983Z,29.70
2022-12-23T20:45:43.406Z,33.03
2022-12-23T20:53:09.206Z,30.48
2022-12-23T20:55:39.694Z,34.10
2022-12-23T20:58:59.576Z,34.22
2022-12-23T21:01:55.385Z,32.70
2022-12-23T21:05:14.161Z,34.45
2022-12-23T21:07:42.923Z,32.53
2022-12-23T21:10:13.785Z,32.67
2022-12-23T21:12:42.097Z,36.92
2022-12-23T21:15:11.003Z,31.15
2022-12-23T21:17:39.338Z,31.27
2022-12-23T21:20:09.326Z,30.08
2022-12-23T21:22:41.763Z,34.20
2022-12-23T21:25:10.963Z,54.28
2022-12-23T21:27:39.632Z,54.25
2022-12-23T21:30:20.708Z,54.47
2022-12-23T21:32:52.932Z,37.22
2022-12-23T21:35:28.009Z,40.60
2022-12-23T21:37:56.403Z,47.60
2022-12-23T21:40:28.161Z,48.50
2022-12-23T21:43:24.240Z,45.92
2022-12-23T21:46:00.796Z,43.55
2022-12-23T21:48:34.506Z,53.38
2022-12-23T21:51:23.893Z,37.72
2022-12-23T21:53:54.621Z,38.70
2022-12-23T21:57:34.762Z,39.50
2022-12-23T21:59:35.769Z,41.42
2022-12-23T22:02:04.996Z,39.05
2022-12-23T22:04:33.374Z,41.80
2022-12-23T22:07:05.440Z,41.47
2022-12-23T22:09:47.694Z,40.58
2022-12-23T22:13:26.626Z,41.53
2022-12-23T22:15:58.770Z,44.33
2022-12-23T22:22:11.211Z,51.25
2022-12-23T22:25:25.142Z,53.50
2022-12-23T22:28:20.490Z,52.42
2022-12-23T22:57:37.882Z,43.58
2022-12-23T23:17:27.555Z,89.72
2022-12-23T23:20:22.173Z,72.57
2022-12-23T23:22:54.549Z,61.00
2022-12-23T23:25:24.933Z,60.58
2022-12-23T23:27:53.772Z,59.35
2022-12-23T23:30:22.158Z,76.97
2022-12-23T23:32:51.628Z,51.75
2022-12-23T23:35:20.038Z,43.60
2022-12-23T23:37:48.744Z,47.03
2022-12-23T23:40:17.178Z,52.13
2022-12-23T23:45:40.953Z,58.55
2022-12-23T23:48:13.058Z,59.88
2022-12-23T23:50:41.314Z,60.85
2022-12-23T23:53:11.749Z,57.10
2022-12-23T23:55:40.222Z,52.58
2022-12-23T23:58:09.086Z,50.33
